Latest Weather Observations for Truscott

IDD60801

Issued at 9:05 pm CST Thursday 18 September 2014 (issued every 30 minutes, with the page automatically refreshed every 10 minutes)

About weather observations | Map of weather stations | Latest weather observations for NT | Other Formats
Station Details ID: 001020 Name: TRUSCOTT Lat: -14.09 Lon: 126.39 Height: 51.0 m
Data from the previous 72 hours. | See also: Recent months at Truscott
Date/Time
CST
Temp
°C
App
Temp
°C
Dew
Point
Rel
Hum
%
Delta-T
°C
Wind Press
QNH
hPa
Press
MSL
hPa
Rain
since 9 am
mm
Dir
 
Spd
km/h
Gust
km/h
Spd
kts
Gust
kts
18/09:00pm 25.0 26.8 18.4 66 4.2 W 6 6 3 3 1015.0 - 0.0
18/08:30pm 25.5 27.3 18.4 65 4.5 NW 6 7 3 4 1014.6 - 0.0
18/08:00pm 25.9 27.6 18.1 62 4.9 W 6 7 3 4 1014.2 - 0.0
18/07:30pm 26.2 27.7 18.1 61 5.1 NW 7 9 4 5 1013.6 1013.1 0.0
18/07:00pm 26.9 28.5 18.2 59 5.5 NNW 7 11 4 6 1013.2 - 0.0
18/06:30pm 27.8 28.7 17.6 53 6.4 NNW 9 15 5 8 1012.8 - 0.0
18/06:00pm 28.4 28.4 17.3 51 7.0 NNW 13 19 7 10 1012.4 - 0.0
18/05:30pm 28.7 28.2 16.9 48 7.4 NNW 15 24 8 13 1012.1 - 0.0
18/05:00pm 29.5 29.0 17.0 47 7.9 NNW 15 22 8 12 1012.1 - 0.0
18/04:30pm 30.0 29.3 16.4 44 8.5 NNW 15 20 8 11 1012.3 1011.8 0.0
18/04:00pm 30.1 28.5 16.1 42 8.7 NNW 19 24 10 13 1012.3 - 0.0
18/03:30pm 30.5 28.6 14.2 37 9.9 N 17 26 9 14 1012.6 - 0.0
18/03:00pm 31.1 28.9 13.4 34 10.6 N 17 24 9 13 1013.0 - 0.0
18/02:30pm 31.2 29.1 13.5 34 10.6 N 17 24 9 13 1013.7 - 0.0
18/02:00pm 31.2 29.1 13.5 34 10.6 NNW 17 26 9 14 1014.1 - 0.0
18/01:30pm 31.2 29.2 13.9 35 10.5 NNW 17 24 9 13 1014.5 1014.0 0.0
18/01:00pm 31.0 28.6 13.7 34 10.4 NNW 19 28 10 15 1015.2 - 0.0
18/12:30pm 31.0 29.6 14.6 37 10.0 NNW 15 24 8 13 1015.8 - 0.0
18/12:00pm 31.2 30.6 15.6 39 9.7 NNW 13 20 7 11 1016.4 - 0.0
18/11:30am 31.2 29.8 12.1 31 11.2 N 11 20 6 11 1016.8 - 0.0
18/11:00am 31.0 29.8 12.8 32 10.8 N 11 19 6 10 1017.2 - 0.0
18/10:30am 30.5 30.4 13.3 35 10.3 ENE 6 11 3 6 1017.3 1016.9 0.0
18/10:00am 29.6 30.6 16.8 46 8.0 NE 7 13 4 7 1017.6 - 0.0
18/09:30am 28.2 29.9 18.0 54 6.5 NW 6 9 3 5 1017.2 - 0.0
18/09:00am 27.2 29.3 19.3 62 5.1 SW 7 11 4 6 1016.6 - 0.0
18/08:30am 25.8 27.2 18.7 65 4.5 SW 9 11 5 6 1016.4 - 0.0
18/08:00am 24.4 26.9 19.9 76 2.9 SSW 6 9 3 5 1015.9 - 0.0
18/07:30am 21.7 25.7 20.5 93 0.8 CALM 0 7 0 4 1015.5 1015.1 0.0
18/07:00am 21.6 24.2 20.4 93 0.8 SSW 7 9 4 5 1014.9 - 0.0
18/06:30am 22.1 24.6 20.2 89 1.2 SSW 7 9 4 5 1014.5 - 0.0
18/06:00am 23.2 26.2 21.3 89 1.3 SSW 7 9 4 5 1014.2 - 0.0
18/05:30am 23.2 26.2 21.3 89 1.3 SW 7 9 4 5 1013.9 - 0.0
18/05:00am 23.2 26.3 21.5 90 1.1 SSW 7 9 4 5 1013.9 - 0.0
18/04:30am 22.6 25.4 20.5 88 1.4 SW 6 7 3 4 1013.7 1013.2 0.0
18/04:00am 23.4 26.5 21.5 89 1.3 SW 7 9 4 5 1013.4 - 0.0
18/03:30am 23.5 26.6 21.4 88 1.4 SW 7 9 4 5 1013.5 - 0.0
18/03:00am 23.6 26.4 21.5 88 1.4 SW 9 11 5 6 1013.5 - 0.0
18/02:30am 23.7 26.8 21.4 87 1.5 SW 7 9 4 5 1013.5 - 0.0
18/02:00am 24.1 26.8 21.4 85 1.8 SW 9 11 5 6 1013.8 - 0.0
18/01:30am 24.4 27.2 21.5 84 1.9 SW 9 13 5 7 1014.2 1013.7 0.0
18/01:00am 24.3 27.1 21.6 85 1.8 SW 9 13 5 7 1014.5 - 0.0
18/12:30am 24.2 27.3 21.5 85 1.8 WSW 7 11 4 6 1014.5 - 0.0
18/12:00am 24.6 26.9 21.3 82 2.2 WSW 11 13 6 7 1014.8 - 0.0
 
Date/Time
CST
Temp
°C
App
Temp
°C
Dew
Point
Rel
Hum
%
Delta-T
°C
Wind Press
QNH
hPa
Press
MSL
hPa
Rain
since 9 am
mm
Dir
 
Spd
km/h
Gust
km/h
Spd
kts
Gust
kts
17/11:30pm 24.8 26.9 20.9 79 2.6 SW 11 13 6 7 1015.0 - 0.0
17/11:00pm 25.1 27.2 20.1 74 3.3 SW 9 11 5 6 1015.0 - 0.0
17/10:30pm 25.1 28.3 21.2 79 2.6 SW 6 7 3 4 1014.9 1014.4 0.0
17/10:00pm 24.4 27.2 20.5 79 2.5 WSW 6 9 3 5 1014.8 - 0.0
17/09:30pm 24.9 29.2 21.2 80 2.4 CALM 0 6 0 3 1014.5 - 0.0
17/09:00pm 24.9 27.9 21.2 80 2.4 WNW 7 9 4 5 1014.3 - 0.0
17/08:30pm 25.1 27.8 20.6 76 2.9 NW 7 9 4 5 1014.0 - 0.0
17/08:00pm 25.4 28.2 20.4 74 3.3 NW 6 7 3 4 1013.6 - 0.0
17/07:30pm 25.8 28.7 20.6 73 3.4 NW 6 9 3 5 1013.3 1012.8 0.0
17/07:00pm 26.4 28.7 19.8 67 4.3 NNW 7 11 4 6 1013.1 - 0.0
17/06:30pm 27.2 29.0 19.5 62 5.0 NW 9 15 5 8 1012.8 - 0.0
17/06:00pm 28.4 29.2 19.1 57 6.0 NNW 13 19 7 10 1012.4 - 0.0
17/05:30pm 28.8 28.9 18.3 53 6.7 NNW 15 20 8 11 1012.1 - 0.0
17/05:00pm 29.1 28.4 17.3 49 7.5 NNW 17 24 9 13 1012.0 - 0.0
17/04:30pm 29.4 28.6 17.9 50 7.3 NNW 19 26 10 14 1012.1 1011.6 0.0
17/04:00pm 30.7 28.8 14.3 36 10.0 NNW 17 24 9 13 1012.0 - 0.0
17/03:30pm 30.8 29.0 14.4 36 10.0 NNW 17 22 9 12 1012.1 - 0.0
17/03:00pm 31.7 30.2 15.2 36 10.2 N 17 26 9 14 1012.4 - 0.0
17/02:30pm 31.8 30.6 16.1 38 9.8 NNW 17 26 9 14 1012.7 - 0.0
17/02:00pm 31.2 30.5 16.4 41 9.3 N 15 24 8 13 1013.1 - 0.0
17/01:30pm 31.4 30.8 16.6 41 9.3 NNW 15 22 8 12 1013.5 1013.0 0.0
17/01:00pm 31.5 31.3 16.6 40 9.4 N 13 20 7 11 1013.9 - 0.0
17/12:30pm 30.7 30.1 16.7 43 8.8 NNW 15 20 8 11 1014.2 - 0.0
17/12:00pm 30.0 29.3 16.4 44 8.5 N 15 22 8 12 1014.5 - 0.0
17/11:30am 30.1 29.7 16.1 42 8.7 NNW 13 20 7 11 1015.2 - 0.0
17/11:00am 30.4 30.5 16.4 43 8.8 N 11 20 6 11 1015.4 - 0.0
17/10:30am 30.1 30.2 15.4 41 9.1 NE 9 13 5 7 1015.5 1015.1 0.0
17/10:00am 29.0 29.8 15.9 45 8.1 ENE 6 7 3 4 1015.4 - 0.0
17/09:30am 27.7 29.1 16.3 49 7.1 SSW 4 7 2 4 1015.2 - 0.0
17/09:00am 26.3 27.8 17.6 58 5.5 S 6 9 3 5 1014.6 - 0.0
17/08:30am 25.0 26.0 18.7 68 4.0 SSW 11 15 6 8 1014.0 - 0.0
17/08:00am 23.8 25.3 19.7 78 2.6 SSW 11 15 6 8 1013.8 - 0.0
17/07:30am 22.8 25.0 20.3 86 1.6 SSW 9 13 5 7 1013.4 1012.9 0.0
17/07:00am 22.4 24.7 20.7 90 1.1 SSW 9 13 5 7 1013.0 - 0.0
17/06:30am 22.2 24.6 20.8 92 0.9 SSW 9 13 5 7 1012.8 - 0.0
17/06:00am 22.4 24.5 20.9 91 1.0 SW 11 15 6 8 1012.6 - 0.0
17/05:30am 22.4 24.5 21.0 92 0.9 SW 11 13 6 7 1012.3 - 0.0
17/05:00am 22.5 24.6 21.0 91 1.0 SW 11 15 6 8 1012.0 - 0.0
17/04:30am 22.5 24.5 20.8 90 1.1 SW 11 15 6 8 1011.8 1011.3 0.0
17/04:00am 22.7 24.8 21.0 90 1.1 SSW 11 15 6 8 1011.6 - 0.0
17/03:30am 22.8 24.9 20.9 89 1.2 SSW 11 15 6 8 1011.6 - 0.0
17/03:00am 22.9 25.1 21.2 90 1.1 SSW 11 13 6 7 1011.6 - 0.0
17/02:30am 22.9 25.1 21.2 90 1.1 SW 11 13 6 7 1011.7 - 0.0
17/02:00am 22.9 25.5 21.2 90 1.1 SW 9 13 5 7 1011.9 - 0.0
17/01:30am 23.1 25.3 21.2 89 1.2 SSW 11 13 6 7 1012.4 1011.9 0.0
17/01:00am 23.3 26.3 21.2 88 1.4 SW 7 9 4 5 1012.6 - 0.0
17/12:30am 23.1 26.2 21.5 91 1.1 SW 7 9 4 5 1013.1 - 0.0
17/12:00am 21.6 24.3 20.2 92 0.9 SSW 6 7 3 4 1013.3 - 0.0
 
Date/Time
CST
Temp
°C
App
Temp
°C
Dew
Point
Rel
Hum
%
Delta-T
°C
Wind Press
QNH
hPa
Press
MSL
hPa
Rain
since 9 am
mm
Dir
 
Spd
km/h
Gust
km/h
Spd
kts
Gust
kts
16/11:30pm 22.0 25.2 20.6 92 0.9 W 4 7 2 4 1013.4 - 0.0
16/11:00pm 22.2 26.3 20.7 91 1.0 CALM 0 0 0 0 1013.3 - 0.0
16/10:30pm 22.3 26.0 20.0 87 1.5 CALM 0 0 0 0 1013.2 1012.7 0.0
16/10:00pm 22.6 26.5 20.3 87 1.5 CALM 0 0 0 0 1013.1 - 0.0
16/09:30pm 22.9 26.7 20.2 85 1.7 CALM 0 0 0 0 1013.0 - 0.0
16/09:00pm 23.3 26.7 20.2 83 2.0 WNW 2 6 1 3 1012.7 - 0.0
16/08:30pm 23.7 27.7 20.6 83 2.0 CALM 0 0 0 0 1012.4 - 0.0
16/08:00pm 24.4 27.4 20.9 81 2.3 WNW 6 7 3 4 1012.2 - 0.0
16/07:30pm 24.8 27.7 20.7 78 2.7 NNW 6 7 3 4 1011.7 1011.2 0.0
16/07:00pm 25.3 27.4 21.0 77 2.8 N 11 19 6 10 1011.3 - 0.0
16/06:30pm 25.9 27.8 21.3 76 3.1 N 13 19 7 10 1011.0 - 0.0
16/06:00pm 26.5 28.1 21.5 74 3.3 NNW 15 22 8 12 1010.7 - 0.0
16/05:30pm 26.7 27.6 21.5 73 3.5 N 19 28 10 15 1010.5 - 0.0
16/05:00pm 27.2 27.5 20.5 67 4.4 N 19 26 10 14 1010.5 - 0.0
16/04:30pm 28.4 26.0 13.9 41 8.7 N 19 30 10 16 1010.4 1009.9 0.0
16/04:00pm 28.6 29.2 21.1 64 5.0 N 19 28 10 15 1010.4 - 0.0
16/03:30pm 27.9 28.5 21.0 66 4.6 N 19 28 10 15 1010.5 - 0.0
16/03:00pm 28.2 28.6 21.0 65 4.8 N 20 28 11 15 1011.0 - 0.0
16/02:30pm 27.9 28.5 21.4 67 4.3 N 20 32 11 17 1011.3 - 0.0
16/02:00pm 28.0 28.8 21.8 69 4.2 N 20 30 11 16 1011.7 - 0.0
16/01:30pm 28.3 29.1 21.3 65 4.7 N 19 28 10 15 1012.2 1011.7 0.0
16/01:00pm 28.6 29.5 21.6 66 4.7 NNW 19 30 10 16 1012.6 - 0.0
16/12:30pm 29.6 29.7 19.9 56 6.4 N 19 26 10 14 1012.7 - 0.0
16/12:00pm 30.6 32.0 18.7 49 7.7 W 9 17 5 9 1012.9 - 0.0
16/11:30am 29.5 31.1 19.2 54 6.7 WNW 9 17 5 9 1013.1 - 0.0
16/11:00am 28.7 30.8 20.2 60 5.6 W 9 17 5 9 1013.3 - 0.0
16/10:30am 27.9 28.2 17.1 51 6.8 WSW 11 15 6 8 1013.4 1012.9 0.0
16/10:00am 27.2 29.6 20.8 68 4.2 W 9 15 5 8 1013.5 - 0.0
16/09:30am 26.1 28.5 21.5 76 3.1 WSW 11 15 6 8 1013.3 - 0.0
16/09:00am 24.8 29.8 22.5 87 1.5 CALM 0 4 0 2 1013.4 - 0.0
16/08:30am 23.2 27.0 22.4 95 0.5 SE 6 9 3 5 1013.1 - 0.0
16/08:00am 21.8 26.3 21.6 99 0.1 CALM 0 0 0 0 1012.8 - 0.0
16/07:30am 19.7 23.3 19.7 100 0.0 CALM 0 0 0 0 1012.3 1011.8 0.0
16/07:20am 19.6 23.1 19.6 100 0.0 CALM 0 0 0 0 1012.2 - 0.0
16/07:00am 19.2 22.3 18.7 97 0.3 CALM 0 0 0 0 1011.9 - 0.0
16/06:57am 19.1 22.2 18.6 97 0.3 CALM 0 0 0 0 1011.9 - 0.0
16/06:30am 19.4 21.5 18.9 97 0.3 S 6 7 3 4 1011.7 - 0.0
16/06:00am 20.0 22.2 19.3 96 0.4 SW 6 7 3 4 1011.4 - 0.0
16/05:30am 21.6 25.0 21.6 100 0.0 SW 6 7 3 4 1011.3 - 0.0
16/05:00am 21.0 25.1 20.7 98 0.2 CALM 0 0 0 0 1011.2 - 0.0
16/04:46am 20.9 24.7 20.2 96 0.4 CALM 0 0 0 0 1011.1 - 0.0
16/04:30am 21.2 25.2 20.5 96 0.5 CALM 0 0 0 0 1011.0 1010.5 0.0
16/04:27am 21.2 25.1 20.4 95 0.5 CALM 0 0 0 0 1010.9 - 0.0
16/04:00am 23.0 26.6 22.3 96 0.5 WSW 7 9 4 5 1010.8 - 0.0
16/03:30am 23.4 26.9 22.9 97 0.3 W 9 13 5 7 1010.9 - 0.0
16/03:00am 22.4 25.9 22.2 99 0.1 W 7 9 4 5 1011.2 - 0.0
16/02:30am 23.1 26.8 22.6 97 0.3 W 7 11 4 6 1011.2 - 0.0
16/02:00am 22.8 26.6 22.8 100 0.0 W 7 9 4 5 1011.6 - 0.0
16/01:30am 22.4 26.2 22.4 100 0.0 W 6 7 3 4 1011.9 1011.4 0.0
16/01:00am 21.8 26.1 21.1 96 0.5 CALM 0 0 0 0 1012.2 - 0.0
16/12:30am 22.5 26.4 21.8 96 0.5 W 4 7 2 4 1012.4 - 0.0
16/12:00am 22.7 26.1 21.7 94 0.7 W 6 7 3 4 1012.5 - 0.0
 
Date/Time
CST
Temp
°C
App
Temp
°C
Dew
Point
Rel
Hum
%
Delta-T
°C
Wind Press
QNH
hPa
Press
MSL
hPa
Rain
since 9 am
mm
Dir
 
Spd
km/h
Gust
km/h
Spd
kts
Gust
kts
15/11:30pm 22.8 25.8 21.3 91 1.0 W 7 11 4 6 1012.6 - 0.0
15/11:00pm 23.6 26.5 21.7 89 1.3 W 9 13 5 7 1012.7 - 0.0

Other Formats:

Comma delimited format used in spreadsheet applications
http://www.bom.gov.au/fwo/IDD60801/IDD60801.95101.axf

JavaScript Object Notation format (JSON) in row-major order
http://www.bom.gov.au/fwo/IDD60801/IDD60801.95101.json